Time;durP1;ratioP1;P1;durP2;ratioP2;P2;SDS_P1;SDS_P2;PMS_P1;PMS_P2;Temp;Humidity;BMP_temperature;BMP_pressure;BME280_temperature;BME280_humidity;BME280_pressure;Samples;Min_cycle;Max_cycle;Signal;HPM_P1;HPM_P2
2023/05/14 00:01:06;;;;;;;34.78;19.83;;;10.40;99.90;;;;;;5106582;28;20039;-61
2023/05/14 00:03:31;;;;;;;31.20;18.25;;;10.40;99.90;;;;;;5107173;28;20089;-61
2023/05/14 00:05:57;;;;;;;29.40;17.10;;;10.40;99.90;;;;;;5100749;28;20493;-62
2023/05/14 00:08:22;;;;;;;29.35;16.80;;;10.30;99.90;;;;;;5105298;28;21052;-61
2023/05/14 00:10:48;;;;;;;28.23;15.75;;;10.30;99.90;;;;;;5110009;28;20035;-60
2023/05/14 00:13:13;;;;;;;25.95;16.25;;;10.30;99.90;;;;;;5105197;28;20043;-60
2023/05/14 00:15:39;;;;;;;25.65;15.63;;;10.30;99.90;;;;;;5108942;28;20114;-61
2023/05/14 00:18:05;;;;;;;25.88;14.27;;;10.30;99.90;;;;;;5107488;28;20402;-61
2023/05/14 00:20:31;;;;;;;25.00;17.30;;;10.30;99.90;;;;;;5107457;28;20427;-58
2023/05/14 00:22:56;;;;;;;32.75;18.77;;;10.40;99.90;;;;;;5104752;28;20028;-60
2023/05/14 00:25:22;;;;;;;36.10;19.70;;;10.30;99.90;;;;;;5107943;28;20028;-59
2023/05/14 00:27:47;;;;;;;32.75;17.50;;;10.20;99.90;;;;;;5105074;28;20024;-61
2023/05/14 00:30:13;;;;;;;37.78;22.02;;;10.20;99.90;;;;;;5105971;28;20027;-57
2023/05/14 00:32:39;;;;;;;41.80;22.60;;;10.20;99.90;;;;;;5108816;28;20054;-58
2023/05/14 00:35:05;;;;;;;35.35;22.90;;;10.20;99.90;;;;;;5106882;28;20106;-61
2023/05/14 00:37:30;;;;;;;40.38;24.25;;;10.20;99.90;;;;;;5108136;28;20058;-59
2023/05/14 00:39:56;;;;;;;35.45;22.13;;;10.10;99.90;;;;;;5106654;28;20501;-59
2023/05/14 00:42:22;;;;;;;41.13;20.45;;;10.10;99.90;;;;;;5109171;28;20028;-61
2023/05/14 00:44:47;;;;;;;32.53;19.70;;;10.20;99.90;;;;;;5106615;28;20024;-60
2023/05/14 00:47:13;;;;;;;39.13;20.65;;;10.20;99.90;;;;;;5106067;28;20065;-56
2023/05/14 00:49:40;;;;;;;34.05;19.95;;;10.10;99.90;;;;;;5109077;28;20059;-60
2023/05/14 00:52:06;;;;;;;37.42;21.05;;;10.10;99.90;;;;;;5111209;28;20023;-59
2023/05/14 00:54:32;;;;;;;39.42;22.15;;;10.00;99.90;;;;;;5110002;28;20035;-61
2023/05/14 00:56:58;;;;;;;37.85;23.23;;;10.00;99.90;;;;;;5111116;28;20024;-60
2023/05/14 00:59:25;;;;;;;51.47;27.58;;;9.90;99.90;;;;;;5107142;28;20036;-60
2023/05/14 01:01:50;;;;;;;41.13;23.45;;;9.90;99.90;;;;;;5107354;28;20028;-59
2023/05/14 01:04:16;;;;;;;45.58;23.33;;;9.90;99.90;;;;;;5109298;28;20088;-61
2023/05/14 01:07:10;;;;;;;42.67;23.50;;;9.80;99.90;;;;;;5112196;28;20051;-59
2023/05/14 01:09:55;;;;;;;42.40;20.92;;;9.80;99.90;;;;;;5106635;28;20035;-57
2023/05/14 01:12:32;;;;;;;31.23;18.98;;;9.80;99.90;;;;;;5109661;28;20039;-58
2023/05/14 01:15:03;;;;;;;40.83;18.63;;;9.80;99.90;;;;;;5110290;28;20029;-57
2023/05/14 01:17:31;;;;;;;39.25;19.33;;;9.70;99.90;;;;;;5108674;28;20481;-57
2023/05/14 01:19:58;;;;;;;36.85;18.35;;;9.70;99.90;;;;;;5105622;28;20036;-59
2023/05/14 01:22:23;;;;;;;35.90;17.65;;;9.70;99.90;;;;;;5105654;28;20490;-61
2023/05/14 01:24:49;;;;;;;35.97;20.45;;;9.60;99.90;;;;;;5110105;28;20047;-60
2023/05/14 01:27:17;;;;;;;38.95;20.80;;;9.60;99.90;;;;;;5104841;28;20352;-60
2023/05/14 01:29:51;;;;;;;37.30;20.95;;;9.60;99.90;;;;;;5108204;28;20027;-62
2023/05/14 01:32:17;;;;;;;35.30;19.37;;;9.60;99.90;;;;;;5105805;28;20036;-61
2023/05/14 01:34:44;;;;;;;39.35;21.02;;;9.60;99.90;;;;;;5112282;28;20280;-60
2023/05/14 01:37:11;;;;;;;33.95;18.77;;;9.60;99.90;;;;;;5107183;28;20119;-61
2023/05/14 01:39:38;;;;;;;32.78;17.90;;;9.60;99.90;;;;;;5108383;28;20397;-55
2023/05/14 01:42:05;;;;;;;33.00;16.42;;;9.60;99.90;;;;;;5101402;28;20128;-59
2023/05/14 01:44:32;;;;;;;31.30;17.35;;;9.50;99.90;;;;;;5107165;28;20054;-58
2023/05/14 01:46:57;;;;;;;24.17;15.38;;;9.50;99.90;;;;;;5108746;28;20158;-60
2023/05/14 01:49:23;;;;;;;29.58;17.48;;;9.50;99.90;;;;;;5109647;28;20106;-61
2023/05/14 01:51:48;;;;;;;26.90;15.75;;;9.60;99.90;;;;;;5111152;28;20047;-60
2023/05/14 01:54:14;;;;;;;30.85;16.40;;;9.50;99.90;;;;;;5106134;28;20489;-60
2023/05/14 01:56:39;;;;;;;29.77;15.57;;;9.50;99.90;;;;;;5107179;28;20493;-60
2023/05/14 01:59:05;;;;;;;28.80;15.43;;;9.50;99.90;;;;;;5108180;28;20036;-61
2023/05/14 02:01:31;;;;;;;25.23;15.60;;;9.50;99.90;;;;;;5109356;28;20085;-60
2023/05/14 02:03:56;;;;;;;28.40;16.70;;;9.50;99.90;;;;;;5109344;28;20035;-60
2023/05/14 02:06:22;;;;;;;28.20;16.48;;;9.40;99.90;;;;;;5112764;28;20410;-61
2023/05/14 02:08:47;;;;;;;29.42;15.35;;;9.40;99.90;;;;;;5105072;28;20051;-60
2023/05/14 02:11:13;;;;;;;25.58;15.00;;;9.50;99.90;;;;;;5109581;28;20028;-61
2023/05/14 02:13:39;;;;;;;28.55;16.10;;;9.40;99.90;;;;;;5104642;28;20096;-58
2023/05/14 02:16:04;;;;;;;36.72;15.05;;;9.40;99.90;;;;;;5107312;28;20027;-61
2023/05/14 02:18:30;;;;;;;31.00;14.93;;;9.40;99.90;;;;;;5103331;28;20027;-61
2023/05/14 02:20:56;;;;;;;27.48;14.75;;;9.40;99.90;;;;;;5108541;28;20325;-59
2023/05/14 02:23:22;;;;;;;26.02;14.93;;;9.40;99.90;;;;;;5110361;28;20035;-59
2023/05/14 02:25:47;;;;;;;28.42;15.23;;;9.30;99.90;;;;;;5109582;27;20388;-61
2023/05/14 02:28:13;;;;;;;27.63;13.95;;;9.30;99.90;;;;;;5107959;28;20050;-60
2023/05/14 02:30:38;;;;;;;27.75;15.38;;;9.30;99.90;;;;;;5103365;27;20019;-58
2023/05/14 02:33:04;;;;;;;23.17;14.90;;;9.30;99.90;;;;;;5101651;28;20098;-60
2023/05/14 02:35:30;;;;;;;23.60;14.23;;;9.30;99.90;;;;;;5107809;28;20023;-60
2023/05/14 02:37:55;;;;;;;26.10;13.68;;;9.30;99.90;;;;;;5108246;28;20039;-62
2023/05/14 02:40:21;;;;;;;25.27;13.85;;;9.30;99.90;;;;;;5105016;28;20035;-61
2023/05/14 02:42:46;;;;;;;23.73;14.07;;;9.30;99.90;;;;;;5103448;28;20481;-61
2023/05/14 02:45:12;;;;;;;24.73;14.00;;;9.30;99.90;;;;;;5105006;28;20020;-61
2023/05/14 02:47:37;;;;;;;23.17;13.75;;;9.30;99.90;;;;;;5110646;28;20049;-61
2023/05/14 02:50:05;;;;;;;20.95;13.30;;;9.40;99.90;;;;;;5105465;28;20107;-62
2023/05/14 02:52:30;;;;;;;22.65;13.80;;;9.30;99.90;;;;;;5102057;28;20032;-61
2023/05/14 02:54:56;;;;;;;21.30;12.98;;;9.30;99.90;;;;;;5110107;28;20127;-61
2023/05/14 02:57:21;;;;;;;23.65;13.57;;;9.30;99.90;;;;;;5108782;28;20039;-61
2023/05/14 02:59:47;;;;;;;20.13;12.77;;;9.30;99.90;;;;;;5104812;28;20117;-61
2023/05/14 03:02:12;;;;;;;28.08;12.43;;;9.40;99.90;;;;;;5104508;28;20039;-61
2023/05/14 03:04:38;;;;;;;23.55;13.32;;;9.40;99.90;;;;;;5105627;28;20034;-60
2023/05/14 03:07:03;;;;;;;22.23;13.23;;;9.40;99.90;;;;;;5104553;28;20027;-61
2023/05/14 03:09:29;;;;;;;25.25;12.50;;;9.30;99.90;;;;;;5106637;28;20031;-61
2023/05/14 03:11:56;;;;;;;22.67;13.43;;;9.30;99.90;;;;;;5105106;28;20036;-61
2023/05/14 03:14:21;;;;;;;20.90;12.63;;;9.30;99.90;;;;;;5107940;28;20206;-61
2023/05/14 03:16:47;;;;;;;24.67;13.82;;;9.20;99.90;;;;;;5106476;28;20038;-62
2023/05/14 03:19:12;;;;;;;21.20;13.15;;;9.20;99.90;;;;;;5107547;28;20059;-58
2023/05/14 03:21:38;;;;;;;21.48;12.77;;;9.30;99.90;;;;;;5107797;28;20099;-62
2023/05/14 03:24:04;;;;;;;25.02;12.65;;;9.30;99.90;;;;;;5104857;28;20023;-60
2023/05/14 03:26:29;;;;;;;22.90;12.90;;;9.30;99.90;;;;;;5107441;28;20030;-62
2023/05/14 03:28:55;;;;;;;20.27;12.57;;;9.30;99.90;;;;;;5106711;28;20402;-61
2023/05/14 03:31:20;;;;;;;23.27;13.35;;;9.30;99.90;;;;;;5107417;28;20101;-61
2023/05/14 03:33:46;;;;;;;21.80;12.07;;;9.20;99.90;;;;;;5106382;28;20507;-58
2023/05/14 03:36:11;;;;;;;16.38;10.45;;;9.10;99.90;;;;;;5107700;28;20547;-61
2023/05/14 03:38:37;;;;;;;20.40;11.90;;;9.10;99.90;;;;;;5104161;28;20023;-57
2023/05/14 03:41:02;;;;;;;22.35;13.23;;;9.00;99.90;;;;;;5103645;28;20123;-58
2023/05/14 03:43:28;;;;;;;18.75;11.65;;;8.90;99.90;;;;;;5105733;28;20045;-60
2023/05/14 03:45:53;;;;;;;23.40;13.32;;;8.90;99.90;;;;;;5108096;28;20052;-60
2023/05/14 03:48:19;;;;;;;22.92;13.55;;;8.90;99.90;;;;;;5100676;28;20134;-61
2023/05/14 03:50:45;;;;;;;23.63;13.50;;;8.80;99.90;;;;;;5105055;28;20036;-57
2023/05/14 03:53:11;;;;;;;22.10;13.55;;;8.80;99.90;;;;;;5108716;28;20020;-61
2023/05/14 03:55:36;;;;;;;23.65;13.02;;;8.70;99.90;;;;;;5104093;28;20037;-60
2023/05/14 03:58:02;;;;;;;21.23;13.02;;;8.80;99.90;;;;;;5102616;28;20115;-61
2023/05/14 04:00:28;;;;;;;23.15;13.77;;;8.80;99.90;;;;;;5107084;28;20043;-60
2023/05/14 04:02:53;;;;;;;25.17;13.63;;;8.80;99.90;;;;;;5103598;28;20016;-60
2023/05/14 04:05:19;;;;;;;22.02;14.02;;;8.80;99.90;;;;;;5103061;28;20051;-60
2023/05/14 04:07:45;;;;;;;25.48;13.93;;;8.80;99.90;;;;;;5104939;28;20127;-59
2023/05/14 04:10:12;;;;;;;21.50;12.55;;;8.70;99.90;;;;;;5100339;28;20023;-61
2023/05/14 04:12:38;;;;;;;25.88;13.73;;;8.80;99.90;;;;;;5106483;28;20515;-59
2023/05/14 04:15:04;;;;;;;26.90;13.55;;;8.80;99.90;;;;;;5105204;28;20028;-60
2023/05/14 04:17:30;;;;;;;20.25;12.48;;;8.70;99.90;;;;;;5101859;28;20178;-60
2023/05/14 04:19:55;;;;;;;24.60;14.25;;;8.70;99.90;;;;;;5106101;28;20277;-60
2023/05/14 04:22:21;;;;;;;24.58;14.15;;;8.70;99.90;;;;;;5102210;28;20111;-58
2023/05/14 04:24:46;;;;;;;24.25;13.32;;;8.80;99.90;;;;;;5106414;28;20562;-59
2023/05/14 04:27:18;;;;;;;25.05;14.20;;;8.80;99.90;;;;;;5105205;28;20024;-59
2023/05/14 04:29:44;;;;;;;22.65;13.88;;;8.80;99.90;;;;;;5100995;28;20054;-59
2023/05/14 04:32:11;;;;;;;26.50;13.77;;;8.80;99.90;;;;;;5103720;28;20024;-58
2023/05/14 04:34:36;;;;;;;28.95;14.40;;;8.80;99.90;;;;;;5106253;28;20047;-61
2023/05/14 04:37:03;;;;;;;24.00;13.98;;;8.80;99.90;;;;;;5105155;28;20027;-61
2023/05/14 04:39:28;;;;;;;23.58;14.52;;;8.90;99.90;;;;;;5103084;28;20028;-61
2023/05/14 04:41:54;;;;;;;25.02;14.30;;;8.90;99.90;;;;;;5105153;28;20496;-61
2023/05/14 04:44:20;;;;;;;27.77;15.27;;;8.90;99.90;;;;;;5107568;28;20144;-61
2023/05/14 04:46:45;;;;;;;23.58;14.32;;;8.90;99.90;;;;;;5098559;28;20186;-61
2023/05/14 04:49:11;;;;;;;24.52;15.38;;;9.00;99.90;;;;;;5108247;28;20065;-62
2023/05/14 04:51:37;;;;;;;19.80;12.68;;;9.00;99.90;;;;;;5104978;28;20039;-61
2023/05/14 04:54:02;;;;;;;21.83;12.68;;;9.10;99.90;;;;;;5103454;28;20031;-61
2023/05/14 04:56:28;;;;;;;26.17;15.25;;;9.10;99.90;;;;;;5105778;28;20019;-61
2023/05/14 04:58:53;;;;;;;20.08;13.02;;;9.20;99.90;;;;;;5102756;28;20144;-62
2023/05/14 05:01:19;;;;;;;25.17;14.05;;;9.30;99.90;;;;;;5104855;28;20024;-62
2023/05/14 05:03:45;;;;;;;22.15;13.63;;;9.30;99.90;;;;;;5100594;28;20016;-61
2023/05/14 05:06:10;;;;;;;22.02;12.85;;;9.30;99.90;;;;;;5102301;28;20490;-60
2023/05/14 05:08:36;;;;;;;27.67;15.13;;;9.30;99.90;;;;;;5109351;28;20042;-60
2023/05/14 05:11:02;;;;;;;24.95;13.77;;;9.40;99.90;;;;;;5105157;28;20031;-60
2023/05/14 05:13:27;;;;;;;22.30;13.40;;;9.40;99.90;;;;;;5106131;28;20063;-60
2023/05/14 05:15:53;;;;;;;28.23;13.13;;;9.40;99.90;;;;;;5103671;28;20028;-61
2023/05/14 05:18:18;;;;;;;23.23;14.35;;;9.50;99.90;;;;;;5109232;28;20435;-60
2023/05/14 05:20:44;;;;;;;23.75;14.38;;;9.60;99.90;;;;;;5108062;28;20039;-61
2023/05/14 05:23:09;;;;;;;24.83;14.75;;;9.60;99.90;;;;;;5107521;28;20034;-61
2023/05/14 05:25:35;;;;;;;27.38;15.07;;;9.70;99.90;;;;;;5108453;27;20028;-60
2023/05/14 05:28:00;;;;;;;21.35;15.02;;;9.80;99.90;;;;;;5104003;28;20049;-61
2023/05/14 05:30:26;;;;;;;31.08;15.95;;;9.90;99.90;;;;;;5108275;28;20114;-61
2023/05/14 05:32:52;;;;;;;29.45;16.83;;;10.00;99.90;;;;;;5110474;28;20031;-60
2023/05/14 05:35:17;;;;;;;29.83;16.20;;;10.00;99.90;;;;;;5106846;28;20485;-59
2023/05/14 05:37:44;;;;;;;26.25;15.73;;;10.10;99.90;;;;;;5110733;28;20031;-61
2023/05/14 05:40:09;;;;;;;28.63;16.50;;;10.20;99.90;;;;;;5109254;28;20042;-61
2023/05/14 05:42:35;;;;;;;31.88;17.70;;;10.30;99.90;;;;;;5104844;28;20504;-60
2023/05/14 05:45:01;;;;;;;33.28;18.35;;;10.30;99.90;;;;;;5109922;28;20111;-59
2023/05/14 05:47:26;;;;;;;29.25;17.52;;;10.40;99.90;;;;;;5110703;28;20456;-59
2023/05/14 05:49:52;;;;;;;32.47;19.50;;;10.50;99.90;;;;;;5109527;28;20031;-59
2023/05/14 05:52:18;;;;;;;29.30;18.98;;;10.60;99.90;;;;;;5107878;28;20022;-60
2023/05/14 05:54:44;;;;;;;33.72;18.23;;;10.70;99.90;;;;;;5112814;27;20482;-60
2023/05/14 05:57:10;;;;;;;28.88;18.10;;;10.70;99.90;;;;;;5106080;28;20088;-62
2023/05/14 05:59:35;;;;;;;37.55;21.63;;;10.80;99.90;;;;;;5106298;28;20047;-62
2023/05/14 06:02:01;;;;;;;34.92;20.58;;;10.80;99.90;;;;;;5105091;28;20552;-61
2023/05/14 06:04:26;;;;;;;37.03;22.50;;;10.90;99.90;;;;;;5108811;28;20084;-62
2023/05/14 06:06:52;;;;;;;34.33;19.52;;;11.00;99.90;;;;;;5104569;28;20016;-62
2023/05/14 06:09:17;;;;;;;36.60;21.60;;;11.00;99.90;;;;;;5109782;28;20019;-62
2023/05/14 06:11:43;;;;;;;44.55;23.42;;;11.10;99.90;;;;;;5108528;28;20019;-62
2023/05/14 06:14:08;;;;;;;46.53;23.65;;;11.20;99.90;;;;;;5107069;28;20362;-62
2023/05/14 06:16:34;;;;;;;40.22;23.92;;;11.30;99.90;;;;;;5107174;28;20523;-62
2023/05/14 06:19:00;;;;;;;40.72;24.02;;;11.40;99.90;;;;;;5107250;28;20603;-60
2023/05/14 06:21:25;;;;;;;42.08;22.35;;;11.40;99.90;;;;;;5109293;28;20489;-61
2023/05/14 06:23:51;;;;;;;42.58;22.50;;;11.40;99.90;;;;;;5104421;28;20011;-61
2023/05/14 06:26:16;;;;;;;35.28;20.80;;;11.50;99.90;;;;;;5105273;27;20024;-60
2023/05/14 06:28:42;;;;;;;40.40;22.08;;;11.50;99.90;;;;;;5108710;28;20142;-61
2023/05/14 06:31:07;;;;;;;42.50;23.23;;;11.50;99.90;;;;;;5110972;27;20059;-62
2023/05/14 06:33:33;;;;;;;36.70;22.42;;;11.60;99.90;;;;;;5106897;28;20032;-60
2023/05/14 06:36:04;;;;;;;41.20;22.67;;;11.70;99.90;;;;;;5108362;28;20497;-61
2023/05/14 06:38:29;;;;;;;36.15;21.33;;;11.70;99.90;;;;;;5109212;28;20031;-62
2023/05/14 06:40:55;;;;;;;42.75;22.38;;;11.80;99.90;;;;;;5106145;28;20038;-61
2023/05/14 06:43:21;;;;;;;37.10;22.73;;;11.80;99.90;;;;;;5109578;27;20085;-62
2023/05/14 06:45:50;;;;;;;45.50;22.23;;;11.90;99.90;;;;;;5105617;28;20024;-61
2023/05/14 06:48:17;;;;;;;46.95;24.58;;;12.00;99.90;;;;;;5107275;28;20073;-61
2023/05/14 06:50:44;;;;;;;42.13;24.33;;;12.10;99.90;;;;;;5103766;28;20065;-63
2023/05/14 06:53:09;;;;;;;48.42;24.55;;;12.10;99.90;;;;;;5106172;28;20039;-62
2023/05/14 06:55:35;;;;;;;43.30;24.55;;;12.20;99.90;;;;;;5108834;28;20031;-62
2023/05/14 06:58:00;;;;;;;40.08;23.23;;;12.30;99.90;;;;;;5106629;28;20496;-60
2023/05/14 07:00:27;;;;;;;48.42;25.98;;;12.40;99.90;;;;;;5105675;28;20058;-61
2023/05/14 07:02:52;;;;;;;44.33;24.27;;;12.50;99.90;;;;;;5106272;28;20023;-63
2023/05/14 07:05:18;;;;;;;40.72;24.45;;;12.60;99.90;;;;;;5108110;28;20386;-62
2023/05/14 07:07:44;;;;;;;48.40;24.63;;;12.70;99.90;;;;;;5107181;28;20031;-61
2023/05/14 07:10:09;;;;;;;35.95;21.95;;;12.70;99.90;;;;;;5101278;28;20031;-62
2023/05/14 07:12:35;;;;;;;41.22;24.88;;;12.80;99.90;;;;;;5104159;28;20023;-61
2023/05/14 07:15:01;;;;;;;41.53;24.95;;;12.90;99.90;;;;;;5104361;28;20055;-60
2023/05/14 07:17:26;;;;;;;40.35;24.08;;;13.00;99.90;;;;;;5103377;28;20405;-62
2023/05/14 07:19:54;;;;;;;39.92;22.35;;;13.10;99.90;;;;;;5104705;28;20103;-60
2023/05/14 07:22:20;;;;;;;44.53;23.35;;;13.10;99.90;;;;;;5099780;28;20039;-61
2023/05/14 07:24:45;;;;;;;41.38;23.85;;;13.20;99.90;;;;;;5105657;28;20097;-62
2023/05/14 07:27:11;;;;;;;45.15;22.67;;;13.30;99.90;;;;;;5107023;28;20019;-62
2023/05/14 07:29:36;;;;;;;34.08;21.50;;;13.40;99.90;;;;;;5107717;28;20420;-61
2023/05/14 07:32:02;;;;;;;31.83;18.95;;;13.40;99.90;;;;;;5107263;28;20092;-62
2023/05/14 07:34:28;;;;;;;27.15;18.17;;;13.50;99.90;;;;;;5109051;28;20397;-62
2023/05/14 07:36:53;;;;;;;28.27;15.77;;;13.60;99.90;;;;;;5104863;28;20028;-60
2023/05/14 07:39:19;;;;;;;29.90;16.92;;;13.70;99.90;;;;;;5102701;28;20031;-61
2023/05/14 07:41:44;;;;;;;30.42;16.35;;;13.80;99.90;;;;;;5108138;28;20042;-60
2023/05/14 07:44:10;;;;;;;28.55;16.38;;;13.80;99.90;;;;;;5105277;28;20036;-61
2023/05/14 07:46:36;;;;;;;24.40;15.68;;;13.90;99.90;;;;;;5097981;28;20031;-61
2023/05/14 07:49:01;;;;;;;24.08;13.50;;;14.10;99.90;;;;;;5104534;28;20020;-61
2023/05/14 07:51:27;;;;;;;24.15;14.63;;;14.20;99.90;;;;;;5105340;28;20396;-61
2023/05/14 07:53:54;;;;;;;21.63;13.55;;;14.30;99.90;;;;;;5104791;28;20023;-61
2023/05/14 07:56:22;;;;;;;24.58;13.68;;;14.40;99.90;;;;;;5109329;28;20032;-61
2023/05/14 07:58:49;;;;;;;21.83;12.25;;;14.50;99.90;;;;;;5099430;28;20061;-61
2023/05/14 08:01:15;;;;;;;18.98;12.57;;;14.60;99.90;;;;;;5107435;28;20034;-58
2023/05/14 08:03:40;;;;;;;17.05;12.10;;;14.70;99.90;;;;;;5103134;28;20031;-57
2023/05/14 08:06:06;;;;;;;16.92;10.32;;;14.80;99.90;;;;;;5106113;28;20389;-58
2023/05/14 08:08:31;;;;;;;14.32;9.70;;;14.90;99.90;;;;;;5105963;28;20023;-54
2023/05/14 08:10:57;;;;;;;16.95;8.05;;;14.90;99.90;;;;;;5106391;28;20039;-59
2023/05/14 08:13:22;;;;;;;15.02;9.35;;;15.00;99.90;;;;;;5100336;28;20039;-59
2023/05/14 08:15:48;;;;;;;21.08;11.23;;;15.10;99.90;;;;;;5108166;28;20062;-58
2023/05/14 08:18:13;;;;;;;14.32;9.38;;;15.20;99.90;;;;;;5107517;28;20039;-56
2023/05/14 08:20:39;;;;;;;19.55;10.82;;;15.30;99.90;;;;;;5105206;28;20082;-59
2023/05/14 08:23:06;;;;;;;15.75;10.13;;;15.40;99.90;;;;;;5103657;28;20073;-58
2023/05/14 08:25:32;;;;;;;14.70;9.00;;;15.40;99.90;;;;;;5098822;28;20016;-59
2023/05/14 08:27:58;;;;;;;12.43;7.90;;;15.50;99.90;;;;;;5105092;28;20487;-59
2023/05/14 08:30:24;;;;;;;12.50;8.02;;;15.60;99.90;;;;;;5104740;28;20028;-59
2023/05/14 08:32:50;;;;;;;13.30;8.27;;;15.70;99.90;;;;;;5106431;28;20051;-57
2023/05/14 08:35:16;;;;;;;10.05;7.43;;;15.70;99.90;;;;;;5100810;28;20124;-57
2023/05/14 08:37:42;;;;;;;16.05;6.82;;;15.80;99.90;;;;;;5102716;28;20422;-51
2023/05/14 08:40:08;;;;;;;11.07;6.03;;;15.90;99.90;;;;;;5101266;28;20104;-58
2023/05/14 08:42:35;;;;;;;11.90;7.38;;;16.00;99.90;;;;;;5102683;28;20012;-56
2023/05/14 08:45:02;;;;;;;7.97;6.20;;;16.00;99.90;;;;;;5101256;28;20027;-59
2023/05/14 08:47:29;;;;;;;9.68;7.18;;;16.10;99.90;;;;;;5103427;28;20172;-59
2023/05/14 08:50:06;;;;;;;10.95;5.57;;;16.30;99.90;;;;;;5099945;28;20043;-53
2023/05/14 08:52:32;;;;;;;7.38;5.40;;;16.40;99.90;;;;;;5106667;27;20027;-59
2023/05/14 08:55:01;;;;;;;10.65;5.30;;;16.50;99.90;;;;;;5105495;28;20110;-57
2023/05/14 08:57:28;;;;;;;8.07;4.88;;;16.50;99.90;;;;;;5110955;28;20107;-57
2023/05/14 08:59:54;;;;;;;7.35;4.90;;;16.60;99.90;;;;;;5110489;28;20023;-55
2023/05/14 09:02:23;;;;;;;9.18;5.40;;;16.70;99.90;;;;;;5108905;28;20054;-57
2023/05/14 09:04:54;;;;;;;8.50;5.70;;;16.80;99.90;;;;;;5107209;28;20067;-58
2023/05/14 09:07:20;;;;;;;10.05;6.00;;;16.90;99.90;;;;;;5112946;28;20019;-59
2023/05/14 09:09:46;;;;;;;15.88;6.68;;;17.20;99.90;;;;;;5109524;28;20027;-57
2023/05/14 09:12:12;;;;;;;10.77;6.75;;;17.30;99.90;;;;;;5106708;28;20113;-59
2023/05/14 09:14:37;;;;;;;10.43;6.05;;;17.20;99.90;;;;;;5099106;28;20565;-56
2023/05/14 09:17:03;;;;;;;10.75;5.90;;;17.40;99.90;;;;;;5108715;27;20080;-57
2023/05/14 09:19:28;;;;;;;8.98;4.82;;;17.50;99.90;;;;;;5106656;28;20053;-57
2023/05/14 09:21:59;;;;;;;8.50;5.80;;;17.60;99.90;;;;;;5102424;28;20059;-57
2023/05/14 09:24:29;;;;;;;6.70;5.18;;;17.90;99.90;;;;;;5106217;28;20458;-54
2023/05/14 09:26:57;;;;;;;6.78;5.50;;;18.00;99.90;;;;;;5108533;28;20385;-56
2023/05/14 09:29:27;;;;;;;7.70;5.30;;;18.10;99.90;;;;;;5102999;28;20430;-56
2023/05/14 09:31:54;;;;;;;12.13;6.72;;;18.30;99.90;;;;;;5112316;28;20023;-51
2023/05/14 09:34:27;;;;;;;8.10;5.07;;;18.30;99.90;;;;;;5109206;28;20516;-56
2023/05/14 09:36:57;;;;;;;11.10;5.72;;;18.40;99.90;;;;;;5113094;28;20027;-56
2023/05/14 09:39:24;;;;;;;6.85;4.25;;;18.50;99.90;;;;;;5109521;28;20035;-58
2023/05/14 09:41:53;;;;;;;10.90;4.93;;;18.60;99.90;;;;;;5111562;28;20114;-55
2023/05/14 09:44:19;;;;;;;8.93;5.43;;;18.50;99.90;;;;;;5105878;28;20058;-56
2023/05/14 09:46:45;;;;;;;7.30;4.85;;;18.50;99.90;;;;;;5106684;27;20051;-56
2023/05/14 09:49:11;;;;;;;8.88;4.47;;;18.40;99.90;;;;;;5107765;28;20019;-56
2023/05/14 09:51:37;;;;;;;6.85;4.60;;;18.60;99.90;;;;;;5104480;28;20401;-57
2023/05/14 09:54:04;;;;;;;8.30;4.97;;;18.90;99.90;;;;;;5104413;28;20130;-56
2023/05/14 09:56:31;;;;;;;7.30;4.38;;;19.10;99.90;;;;;;5111155;28;20035;-58
2023/05/14 09:58:56;;;;;;;8.10;5.18;;;19.10;99.90;;;;;;5105314;28;20034;-62
2023/05/14 10:01:23;;;;;;;5.47;3.85;;;19.20;99.90;;;;;;5104414;28;20036;-62
2023/05/14 10:03:50;;;;;;;8.80;5.72;;;19.50;99.90;;;;;;5109490;28;20366;-63
2023/05/14 10:06:16;;;;;;;11.15;5.05;;;19.50;99.90;;;;;;5111548;28;20016;-61
2023/05/14 10:08:44;;;;;;;5.30;4.18;;;19.50;99.90;;;;;;5109129;28;20024;-63
2023/05/14 10:11:19;;;;;;;6.35;4.85;;;19.50;99.90;;;;;;5108287;28;20028;-62
2023/05/14 10:14:04;;;;;;;6.30;4.50;;;19.50;99.90;;;;;;5110849;28;20023;-62
2023/05/14 10:16:32;;;;;;;5.40;4.47;;;19.80;99.90;;;;;;5108516;28;20028;-63
2023/05/14 10:19:04;;;;;;;6.43;4.05;;;19.90;99.90;;;;;;5109923;28;20305;-60
2023/05/14 10:21:34;;;;;;;5.60;4.40;;;20.00;99.90;;;;;;5105532;28;20459;-61
2023/05/14 10:24:00;;;;;;;7.55;4.97;;;20.30;99.90;;;;;;5111286;28;20038;-62
2023/05/14 10:26:26;;;;;;;11.73;5.05;;;20.40;99.90;;;;;;5104665;28;20432;-63
2023/05/14 10:28:52;;;;;;;7.75;5.00;;;20.50;99.90;;;;;;5107340;28;20072;-63
2023/05/14 10:31:21;;;;;;;8.60;5.13;;;20.50;99.90;;;;;;5104420;28;20027;-62
2023/05/14 10:33:50;;;;;;;8.30;5.25;;;20.80;99.90;;;;;;5107413;28;20135;-63
2023/05/14 10:36:19;;;;;;;9.68;6.88;;;21.10;99.90;;;;;;5100817;28;20389;-63
2023/05/14 10:38:46;;;;;;;9.00;6.45;;;21.10;99.90;;;;;;5102750;28;20793;-65
2023/05/14 10:41:20;;;;;;;6.80;5.78;;;20.80;99.90;;;;;;5101912;28;20024;-63
2023/05/14 10:43:46;;;;;;;9.82;5.55;;;21.10;99.90;;;;;;5108468;28;20431;-63
2023/05/14 10:46:13;;;;;;;9.05;6.90;;;21.50;99.90;;;;;;5106194;28;20061;-63
2023/05/14 10:48:41;;;;;;;11.15;6.40;;;21.20;99.90;;;;;;5102307;28;20050;-61
2023/05/14 10:51:09;;;;;;;8.50;6.13;;;21.00;99.90;;;;;;5102532;28;20503;-63
2023/05/14 10:53:40;;;;;;;11.73;5.82;;;20.70;99.90;;;;;;5103937;28;20028;-61
2023/05/14 10:56:10;;;;;;;9.73;7.20;;;20.80;99.90;;;;;;5106027;28;20028;-62
2023/05/14 10:58:37;;;;;;;17.90;8.35;;;20.60;99.90;;;;;;5106282;28;20015;-62
2023/05/14 11:01:05;;;;;;;8.90;6.20;;;20.30;99.90;;;;;;5103951;28;20079;-63
2023/05/14 11:03:37;;;;;;;11.43;6.60;;;19.90;99.90;;;;;;5106014;28;20059;-62
2023/05/14 11:06:04;;;;;;;8.23;5.63;;;19.80;99.90;;;;;;5110541;28;20458;-62
2023/05/14 11:08:31;;;;;;;14.65;6.20;;;20.00;99.90;;;;;;5110612;28;20028;-63
2023/05/14 11:10:57;;;;;;;11.07;5.53;;;20.30;99.90;;;;;;5099489;28;20038;-62
2023/05/14 11:13:22;;;;;;;8.95;5.03;;;20.50;99.90;;;;;;5109783;28;20036;-60
2023/05/14 11:15:48;;;;;;;11.02;5.65;;;20.40;99.90;;;;;;5105330;28;20106;-63
2023/05/14 11:18:28;;;;;;;15.90;6.45;;;20.20;99.90;;;;;;5106313;28;20038;-63
2023/05/14 11:21:00;;;;;;;13.23;5.97;;;20.20;99.90;;;;;;5108141;28;20024;-63
2023/05/14 11:23:26;;;;;;;11.60;5.78;;;20.20;99.90;;;;;;5106715;28;20028;-63
2023/05/14 11:25:53;;;;;;;9.82;6.85;;;20.70;99.90;;;;;;5106253;28;20467;-62
2023/05/14 11:28:22;;;;;;;14.27;7.05;;;20.80;99.90;;;;;;5104495;28;20019;-62
2023/05/14 11:30:49;;;;;;;10.27;6.60;;;20.70;99.90;;;;;;5105055;28;20178;-62
2023/05/14 11:33:15;;;;;;;11.88;8.35;;;20.70;99.90;;;;;;5109445;28;20114;-62
2023/05/14 11:35:44;;;;;;;12.05;8.18;;;20.60;99.90;;;;;;5108480;28;20126;-63
2023/05/14 11:38:20;;;;;;;17.15;8.30;;;20.80;99.90;;;;;;5107954;28;20028;-62
2023/05/14 11:40:55;;;;;;;11.18;7.00;;;21.10;99.90;;;;;;5101208;28;20079;-64
2023/05/14 11:43:24;;;;;;;12.07;6.97;;;21.00;99.90;;;;;;5104110;28;20465;-63
2023/05/14 11:45:52;;;;;;;18.40;8.57;;;20.90;99.90;;;;;;5105050;28;20485;-63
2023/05/14 11:48:19;;;;;;;13.02;7.25;;;20.50;99.90;;;;;;5106111;28;20439;-64
2023/05/14 11:50:47;;;;;;;12.90;7.20;;;20.60;99.90;;;;;;5106439;28;20404;-62
2023/05/14 11:53:24;;;;;;;9.77;6.93;;;20.60;99.90;;;;;;5107029;27;20027;-63
2023/05/14 11:55:49;;;;;;;11.98;6.97;;;20.50;99.90;;;;;;5098793;28;20032;-60
2023/05/14 11:58:17;;;;;;;10.30;6.95;;;20.50;99.90;;;;;;5097256;28;20043;-63
2023/05/14 12:00:44;;;;;;;11.40;6.68;;;20.50;99.90;;;;;;5100898;27;20700;-63
2023/05/14 12:03:10;;;;;;;15.95;6.57;;;20.60;99.90;;;;;;5102551;28;20047;-63
2023/05/14 12:05:39;;;;;;;7.45;5.88;;;20.50;99.90;;;;;;5103492;28;20115;-62
2023/05/14 12:08:40;;;;;;;7.95;5.85;;;20.60;99.90;;;;;;5106414;28;20020;-62
2023/05/14 12:11:08;;;;;;;8.80;5.78;;;20.70;99.90;;;;;;5019835;28;20034;-61
2023/05/14 12:13:35;;;;;;;8.93;6.05;;;21.00;99.90;;;;;;5081818;28;20106;-62
2023/05/14 12:16:01;;;;;;;10.57;6.20;;;21.20;99.90;;;;;;5100386;28;20024;-60
2023/05/14 12:18:29;;;;;;;9.75;5.25;;;21.40;99.90;;;;;;5102005;28;20684;-62
2023/05/14 12:21:00;;;;;;;10.45;5.82;;;21.40;99.90;;;;;;5101568;28;20115;-62
2023/05/14 12:23:30;;;;;;;12.88;6.40;;;21.40;99.90;;;;;;5104750;28;20028;-63
2023/05/14 12:26:04;;;;;;;8.27;4.57;;;21.50;98.60;;;;;;5103405;28;20032;-62
2023/05/14 12:28:30;;;;;;;;;;;21.90;99.10;;;;;;5106433;28;20028;-62
2023/05/14 12:30:56;;;;;;;8.93;5.82;;;22.40;99.90;;;;;;5108585;28;19921;-62
2023/05/14 12:33:22;;;;;;;11.90;5.93;;;22.60;96.10;;;;;;5105131;28;20115;-61